sensor_id;sensor_type;location;lat;lon;timestamp;P1;durP1;ratioP1;P2;durP2;ratioP2
74945;SDS011;63509;45.250;38.102;2022-10-28T00:00:54;19.60;;;10.07;;
74945;SDS011;63509;45.250;38.102;2022-10-28T00:03:27;18.23;;;10.27;;
74945;SDS011;63509;45.250;38.102;2022-10-28T00:05:53;21.55;;;10.70;;
74945;SDS011;63509;45.250;38.102;2022-10-28T00:08:19;16.20;;;9.68;;
74945;SDS011;63509;45.250;38.102;2022-10-28T00:10:45;19.23;;;9.88;;
74945;SDS011;63509;45.250;38.102;2022-10-28T00:13:11;20.65;;;10.50;;
74945;SDS011;63509;45.250;38.102;2022-10-28T00:15:37;21.45;;;11.07;;
74945;SDS011;63509;45.250;38.102;2022-10-28T00:18:03;22.65;;;11.05;;
74945;SDS011;63509;45.250;38.102;2022-10-28T00:20:29;18.00;;;10.10;;
74945;SDS011;63509;45.250;38.102;2022-10-28T00:22:56;20.15;;;11.45;;
74945;SDS011;63509;45.250;38.102;2022-10-28T00:25:22;17.35;;;9.85;;
74945;SDS011;63509;45.250;38.102;2022-10-28T00:27:49;22.25;;;11.85;;
74945;SDS011;63509;45.250;38.102;2022-10-28T00:30:16;18.10;;;10.65;;
74945;SDS011;63509;45.250;38.102;2022-10-28T00:32:43;17.55;;;10.45;;
74945;SDS011;63509;45.250;38.102;2022-10-28T00:35:08;20.45;;;11.13;;
74945;SDS011;63509;45.250;38.102;2022-10-28T00:37:35;18.23;;;10.25;;
74945;SDS011;63509;45.250;38.102;2022-10-28T00:40:00;17.75;;;10.15;;
74945;SDS011;63509;45.250;38.102;2022-10-28T00:42:26;19.33;;;12.05;;
74945;SDS011;63509;45.250;38.102;2022-10-28T00:44:54;23.15;;;13.77;;
74945;SDS011;63509;45.250;38.102;2022-10-28T00:50:15;27.13;;;17.23;;
74945;SDS011;63509;45.250;38.102;2022-10-28T00:53:23;22.20;;;14.30;;
74945;SDS011;63509;45.250;38.102;2022-10-28T00:55:52;21.90;;;13.60;;
74945;SDS011;63509;45.250;38.102;2022-10-28T00:58:20;23.13;;;12.48;;
74945;SDS011;63509;45.250;38.102;2022-10-28T01:00:47;22.73;;;13.55;;
74945;SDS011;63509;45.250;38.102;2022-10-28T01:03:14;22.42;;;14.80;;
74945;SDS011;63509;45.250;38.102;2022-10-28T01:05:40;22.10;;;13.38;;
74945;SDS011;63509;45.250;38.102;2022-10-28T01:08:08;19.40;;;11.35;;
74945;SDS011;63509;45.250;38.102;2022-10-28T01:24:12;20.02;;;9.80;;
74945;SDS011;63509;45.250;38.102;2022-10-28T01:35:20;16.08;;;9.18;;
74945;SDS011;63509;45.250;38.102;2022-10-28T01:40:28;14.90;;;8.00;;
74945;SDS011;63509;45.250;38.102;2022-10-28T01:43:12;17.45;;;9.95;;
74945;SDS011;63509;45.250;38.102;2022-10-28T01:45:59;16.38;;;8.30;;
74945;SDS011;63509;45.250;38.102;2022-10-28T01:51:21;19.27;;;9.52;;
74945;SDS011;63509;45.250;38.102;2022-10-28T01:53:53;15.98;;;8.77;;
74945;SDS011;63509;45.250;38.102;2022-10-28T01:56:23;19.17;;;9.68;;
74945;SDS011;63509;45.250;38.102;2022-10-28T01:58:55;17.77;;;10.05;;
74945;SDS011;63509;45.250;38.102;2022-10-28T02:01:23;22.48;;;10.70;;
74945;SDS011;63509;45.250;38.102;2022-10-28T02:03:52;18.55;;;12.88;;
74945;SDS011;63509;45.250;38.102;2022-10-28T02:06:20;25.30;;;13.88;;
74945;SDS011;63509;45.250;38.102;2022-10-28T02:17:37;19.48;;;9.85;;
74945;SDS011;63509;45.250;38.102;2022-10-28T02:23:25;18.85;;;10.88;;
74945;SDS011;63509;45.250;38.102;2022-10-28T02:26:33;15.55;;;10.75;;
74945;SDS011;63509;45.250;38.102;2022-10-28T02:31:41;19.02;;;9.77;;
74945;SDS011;63509;45.250;38.102;2022-10-28T02:34:13;17.52;;;10.65;;
74945;SDS011;63509;45.250;38.102;2022-10-28T02:36:43;19.35;;;11.10;;
74945;SDS011;63509;45.250;38.102;2022-10-28T02:39:13;15.55;;;10.32;;
74945;SDS011;63509;45.250;38.102;2022-10-28T02:44:14;18.15;;;9.18;;
74945;SDS011;63509;45.250;38.102;2022-10-28T02:46:46;13.52;;;7.93;;
74945;SDS011;63509;45.250;38.102;2022-10-28T02:49:14;12.45;;;7.18;;
74945;SDS011;63509;45.250;38.102;2022-10-28T02:52:02;12.20;;;7.57;;
74945;SDS011;63509;45.250;38.102;2022-10-28T02:57:03;12.45;;;7.78;;
74945;SDS011;63509;45.250;38.102;2022-10-28T02:59:30;14.60;;;7.60;;
74945;SDS011;63509;45.250;38.102;2022-10-28T03:01:57;11.15;;;6.70;;
74945;SDS011;63509;45.250;38.102;2022-10-28T03:04:24;11.00;;;6.68;;
74945;SDS011;63509;45.250;38.102;2022-10-28T03:06:50;17.80;;;8.02;;
74945;SDS011;63509;45.250;38.102;2022-10-28T03:09:16;12.80;;;7.13;;
74945;SDS011;63509;45.250;38.102;2022-10-28T03:11:42;13.18;;;6.57;;
74945;SDS011;63509;45.250;38.102;2022-10-28T03:14:08;16.80;;;7.60;;
74945;SDS011;63509;45.250;38.102;2022-10-28T03:16:34;13.15;;;7.15;;
74945;SDS011;63509;45.250;38.102;2022-10-28T03:19:00;14.35;;;6.35;;
74945;SDS011;63509;45.250;38.102;2022-10-28T03:21:26;13.07;;;7.75;;
74945;SDS011;63509;45.250;38.102;2022-10-28T03:23:52;9.98;;;5.60;;
74945;SDS011;63509;45.250;38.102;2022-10-28T03:26:18;12.55;;;6.90;;
74945;SDS011;63509;45.250;38.102;2022-10-28T03:28:44;15.73;;;8.20;;
74945;SDS011;63509;45.250;38.102;2022-10-28T03:31:10;10.80;;;6.28;;
74945;SDS011;63509;45.250;38.102;2022-10-28T03:33:37;22.92;;;9.07;;
74945;SDS011;63509;45.250;38.102;2022-10-28T03:36:03;12.75;;;7.55;;
74945;SDS011;63509;45.250;38.102;2022-10-28T03:38:29;14.73;;;7.75;;
74945;SDS011;63509;45.250;38.102;2022-10-28T03:40:55;16.75;;;7.90;;
74945;SDS011;63509;45.250;38.102;2022-10-28T03:43:21;14.20;;;7.82;;
74945;SDS011;63509;45.250;38.102;2022-10-28T03:45:47;17.45;;;7.15;;
74945;SDS011;63509;45.250;38.102;2022-10-28T03:48:13;13.65;;;7.47;;
74945;SDS011;63509;45.250;38.102;2022-10-28T03:50:39;13.50;;;7.20;;
74945;SDS011;63509;45.250;38.102;2022-10-28T03:53:05;14.23;;;6.78;;
74945;SDS011;63509;45.250;38.102;2022-10-28T03:55:31;13.57;;;6.22;;
74945;SDS011;63509;45.250;38.102;2022-10-28T03:58:01;13.02;;;7.25;;
74945;SDS011;63509;45.250;38.102;2022-10-28T04:00:27;14.27;;;6.63;;
74945;SDS011;63509;45.250;38.102;2022-10-28T04:02:53;11.00;;;5.93;;
74945;SDS011;63509;45.250;38.102;2022-10-28T04:05:20;12.82;;;6.47;;
74945;SDS011;63509;45.250;38.102;2022-10-28T04:07:46;10.73;;;6.13;;
74945;SDS011;63509;45.250;38.102;2022-10-28T04:10:12;12.00;;;7.22;;
74945;SDS011;63509;45.250;38.102;2022-10-28T04:12:38;9.73;;;5.88;;
74945;SDS011;63509;45.250;38.102;2022-10-28T04:15:05;12.32;;;6.20;;
74945;SDS011;63509;45.250;38.102;2022-10-28T04:17:34;11.02;;;5.88;;
74945;SDS011;63509;45.250;38.102;2022-10-28T04:20:00;10.50;;;6.38;;
74945;SDS011;63509;45.250;38.102;2022-10-28T04:22:26;16.65;;;7.93;;
74945;SDS011;63509;45.250;38.102;2022-10-28T04:24:52;13.20;;;7.75;;
74945;SDS011;63509;45.250;38.102;2022-10-28T04:27:19;13.88;;;7.53;;
74945;SDS011;63509;45.250;38.102;2022-10-28T04:29:45;15.23;;;7.13;;
74945;SDS011;63509;45.250;38.102;2022-10-28T04:32:12;14.43;;;7.18;;
74945;SDS011;63509;45.250;38.102;2022-10-28T04:34:38;16.52;;;6.40;;
74945;SDS011;63509;45.250;38.102;2022-10-28T04:37:04;13.55;;;6.15;;
74945;SDS011;63509;45.250;38.102;2022-10-28T04:39:30;12.90;;;6.25;;
74945;SDS011;63509;45.250;38.102;2022-10-28T04:41:56;13.68;;;6.40;;
74945;SDS011;63509;45.250;38.102;2022-10-28T04:44:22;13.35;;;7.22;;
74945;SDS011;63509;45.250;38.102;2022-10-28T04:46:48;14.52;;;6.75;;
74945;SDS011;63509;45.250;38.102;2022-10-28T04:49:15;14.88;;;7.85;;
74945;SDS011;63509;45.250;38.102;2022-10-28T04:51:41;13.52;;;7.35;;
74945;SDS011;63509;45.250;38.102;2022-10-28T04:54:07;16.38;;;8.32;;
74945;SDS011;63509;45.250;38.102;2022-10-28T04:56:34;20.98;;;8.63;;
74945;SDS011;63509;45.250;38.102;2022-10-28T04:59:00;19.02;;;8.65;;
74945;SDS011;63509;45.250;38.102;2022-10-28T05:01:26;21.88;;;10.70;;
74945;SDS011;63509;45.250;38.102;2022-10-28T05:03:53;23.13;;;11.20;;
74945;SDS011;63509;45.250;38.102;2022-10-28T05:06:19;24.08;;;10.75;;
74945;SDS011;63509;45.250;38.102;2022-10-28T05:08:45;33.03;;;13.45;;
74945;SDS011;63509;45.250;38.102;2022-10-28T05:11:11;38.90;;;17.50;;
74945;SDS011;63509;45.250;38.102;2022-10-28T05:13:41;34.90;;;16.48;;
74945;SDS011;63509;45.250;38.102;2022-10-28T05:16:07;32.10;;;12.30;;
74945;SDS011;63509;45.250;38.102;2022-10-28T05:18:33;23.77;;;11.45;;
74945;SDS011;63509;45.250;38.102;2022-10-28T05:20:59;23.48;;;9.98;;
74945;SDS011;63509;45.250;38.102;2022-10-28T05:23:25;21.63;;;10.63;;
74945;SDS011;63509;45.250;38.102;2022-10-28T05:25:51;18.70;;;9.25;;
74945;SDS011;63509;45.250;38.102;2022-10-28T05:28:18;14.38;;;8.93;;
74945;SDS011;63509;45.250;38.102;2022-10-28T05:30:44;17.85;;;10.40;;
74945;SDS011;63509;45.250;38.102;2022-10-28T05:33:10;19.55;;;12.00;;
74945;SDS011;63509;45.250;38.102;2022-10-28T05:35:37;21.50;;;13.43;;
74945;SDS011;63509;45.250;38.102;2022-10-28T05:38:03;21.35;;;15.05;;
74945;SDS011;63509;45.250;38.102;2022-10-28T05:40:30;24.40;;;13.75;;
74945;SDS011;63509;45.250;38.102;2022-10-28T05:42:59;19.17;;;13.02;;
74945;SDS011;63509;45.250;38.102;2022-10-28T05:45:27;27.48;;;14.57;;
74945;SDS011;63509;45.250;38.102;2022-10-28T05:47:54;23.35;;;14.95;;
74945;SDS011;63509;45.250;38.102;2022-10-28T05:50:20;26.60;;;17.80;;
74945;SDS011;63509;45.250;38.102;2022-10-28T05:52:46;24.65;;;14.25;;
74945;SDS011;63509;45.250;38.102;2022-10-28T05:55:14;20.05;;;12.30;;
74945;SDS011;63509;45.250;38.102;2022-10-28T05:57:43;16.65;;;11.15;;
74945;SDS011;63509;45.250;38.102;2022-10-28T06:00:14;18.55;;;10.98;;
74945;SDS011;63509;45.250;38.102;2022-10-28T06:02:41;17.55;;;10.65;;
74945;SDS011;63509;45.250;38.102;2022-10-28T06:05:08;20.10;;;11.00;;
74945;SDS011;63509;45.250;38.102;2022-10-28T06:07:36;25.25;;;14.05;;
74945;SDS011;63509;45.250;38.102;2022-10-28T06:10:05;24.17;;;13.70;;
74945;SDS011;63509;45.250;38.102;2022-10-28T06:12:32;24.35;;;14.43;;
74945;SDS011;63509;45.250;38.102;2022-10-28T06:14:58;27.27;;;15.30;;
74945;SDS011;63509;45.250;38.102;2022-10-28T06:17:24;24.95;;;14.80;;
74945;SDS011;63509;45.250;38.102;2022-10-28T06:19:50;22.30;;;14.77;;
74945;SDS011;63509;45.250;38.102;2022-10-28T06:22:16;26.02;;;14.30;;
74945;SDS011;63509;45.250;38.102;2022-10-28T06:24:43;21.17;;;11.25;;
74945;SDS011;63509;45.250;38.102;2022-10-28T06:27:09;22.60;;;11.13;;
74945;SDS011;63509;45.250;38.102;2022-10-28T06:29:35;19.40;;;10.52;;
74945;SDS011;63509;45.250;38.102;2022-10-28T06:32:01;18.27;;;9.93;;
74945;SDS011;63509;45.250;38.102;2022-10-28T06:34:27;19.58;;;11.98;;
74945;SDS011;63509;45.250;38.102;2022-10-28T06:36:53;22.15;;;14.35;;
74945;SDS011;63509;45.250;38.102;2022-10-28T06:39:19;30.33;;;16.92;;
74945;SDS011;63509;45.250;38.102;2022-10-28T06:41:45;25.88;;;17.70;;
74945;SDS011;63509;45.250;38.102;2022-10-28T06:44:11;24.63;;;15.25;;
74945;SDS011;63509;45.250;38.102;2022-10-28T06:46:38;20.30;;;11.10;;
74945;SDS011;63509;45.250;38.102;2022-10-28T06:49:04;19.15;;;11.05;;
74945;SDS011;63509;45.250;38.102;2022-10-28T06:51:30;14.52;;;8.25;;
74945;SDS011;63509;45.250;38.102;2022-10-28T06:53:57;18.88;;;10.07;;
74945;SDS011;63509;45.250;38.102;2022-10-28T06:56:23;16.48;;;9.93;;
74945;SDS011;63509;45.250;38.102;2022-10-28T06:58:50;14.18;;;8.02;;
74945;SDS011;63509;45.250;38.102;2022-10-28T07:01:18;16.10;;;8.77;;
74945;SDS011;63509;45.250;38.102;2022-10-28T07:03:44;15.85;;;8.43;;
74945;SDS011;63509;45.250;38.102;2022-10-28T07:06:10;12.65;;;8.18;;
74945;SDS011;63509;45.250;38.102;2022-10-28T07:08:36;15.23;;;9.60;;
74945;SDS011;63509;45.250;38.102;2022-10-28T07:11:03;15.65;;;8.48;;
74945;SDS011;63509;45.250;38.102;2022-10-28T07:13:29;14.65;;;8.80;;
74945;SDS011;63509;45.250;38.102;2022-10-28T07:15:56;17.52;;;9.32;;
74945;SDS011;63509;45.250;38.102;2022-10-28T07:18:25;18.75;;;9.23;;
74945;SDS011;63509;45.250;38.102;2022-10-28T07:20:53;13.50;;;9.02;;
74945;SDS011;63509;45.250;38.102;2022-10-28T07:23:22;13.68;;;8.90;;
74945;SDS011;63509;45.250;38.102;2022-10-28T07:25:54;11.90;;;7.15;;
74945;SDS011;63509;45.250;38.102;2022-10-28T07:28:21;12.90;;;7.35;;
74945;SDS011;63509;45.250;38.102;2022-10-28T07:30:48;12.02;;;7.45;;
74945;SDS011;63509;45.250;38.102;2022-10-28T07:33:14;13.30;;;6.57;;
74945;SDS011;63509;45.250;38.102;2022-10-28T07:35:40;15.43;;;7.57;;
74945;SDS011;63509;45.250;38.102;2022-10-28T07:38:07;16.10;;;5.47;;
74945;SDS011;63509;45.250;38.102;2022-10-28T07:40:33;11.23;;;4.38;;
74945;SDS011;63509;45.250;38.102;2022-10-28T07:42:59;9.43;;;4.43;;
74945;SDS011;63509;45.250;38.102;2022-10-28T07:45:25;9.02;;;4.55;;
74945;SDS011;63509;45.250;38.102;2022-10-28T07:47:51;8.82;;;4.40;;
74945;SDS011;63509;45.250;38.102;2022-10-28T07:50:17;8.48;;;3.78;;
74945;SDS011;63509;45.250;38.102;2022-10-28T07:52:44;7.60;;;3.65;;
74945;SDS011;63509;45.250;38.102;2022-10-28T07:55:10;6.93;;;3.72;;
74945;SDS011;63509;45.250;38.102;2022-10-28T07:57:37;9.05;;;3.88;;
74945;SDS011;63509;45.250;38.102;2022-10-28T08:00:03;7.40;;;4.10;;
74945;SDS011;63509;45.250;38.102;2022-10-28T08:02:35;10.07;;;6.60;;
74945;SDS011;63509;45.250;38.102;2022-10-28T08:05:02;13.43;;;9.35;;
74945;SDS011;63509;45.250;38.102;2022-10-28T08:07:29;14.27;;;9.85;;
74945;SDS011;63509;45.250;38.102;2022-10-28T08:09:56;21.55;;;13.23;;
74945;SDS011;63509;45.250;38.102;2022-10-28T08:12:23;17.10;;;11.07;;
74945;SDS011;63509;45.250;38.102;2022-10-28T08:14:50;19.20;;;13.60;;
74945;SDS011;63509;45.250;38.102;2022-10-28T08:17:16;12.85;;;8.10;;
74945;SDS011;63509;45.250;38.102;2022-10-28T08:19:42;25.77;;;7.30;;
74945;SDS011;63509;45.250;38.102;2022-10-28T08:22:08;10.68;;;6.20;;
74945;SDS011;63509;45.250;38.102;2022-10-28T08:24:34;11.20;;;5.63;;
74945;SDS011;63509;45.250;38.102;2022-10-28T08:27:01;11.50;;;5.57;;
74945;SDS011;63509;45.250;38.102;2022-10-28T08:29:27;10.43;;;5.22;;
74945;SDS011;63509;45.250;38.102;2022-10-28T08:31:53;10.23;;;5.00;;
74945;SDS011;63509;45.250;38.102;2022-10-28T08:34:19;7.50;;;4.15;;
74945;SDS011;63509;45.250;38.102;2022-10-28T08:36:45;7.75;;;5.00;;
74945;SDS011;63509;45.250;38.102;2022-10-28T08:39:11;9.88;;;5.20;;
74945;SDS011;63509;45.250;38.102;2022-10-28T08:41:46;9.45;;;4.60;;
74945;SDS011;63509;45.250;38.102;2022-10-28T08:49:44;9.32;;;5.65;;
74945;SDS011;63509;45.250;38.102;2022-10-28T08:52:24;8.32;;;4.30;;
74945;SDS011;63509;45.250;38.102;2022-10-28T08:55:06;6.85;;;4.57;;
74945;SDS011;63509;45.250;38.102;2022-10-28T08:57:48;9.32;;;4.60;;
74945;SDS011;63509;45.250;38.102;2022-10-28T09:00:34;9.38;;;5.72;;
74945;SDS011;63509;45.250;38.102;2022-10-28T09:05:40;8.13;;;5.50;;
74945;SDS011;63509;45.250;38.102;2022-10-28T09:08:27;10.43;;;5.97;;
74945;SDS011;63509;45.250;38.102;2022-10-28T09:21:46;9.20;;;4.07;;
74945;SDS011;63509;45.250;38.102;2022-10-28T09:24:16;9.98;;;5.97;;
74945;SDS011;63509;45.250;38.102;2022-10-28T09:29:47;8.73;;;4.22;;
74945;SDS011;63509;45.250;38.102;2022-10-28T09:35:40;8.07;;;4.60;;
74945;SDS011;63509;45.250;38.102;2022-10-28T09:40:37;7.18;;;3.28;;
74945;SDS011;63509;45.250;38.102;2022-10-28T09:43:25;4.93;;;3.08;;
74945;SDS011;63509;45.250;38.102;2022-10-28T09:46:06;6.57;;;3.28;;
74945;SDS011;63509;45.250;38.102;2022-10-28T09:48:38;5.53;;;2.63;;
74945;SDS011;63509;45.250;38.102;2022-10-28T09:51:20;4.53;;;2.65;;
74945;SDS011;63509;45.250;38.102;2022-10-28T09:54:06;5.00;;;2.47;;
74945;SDS011;63509;45.250;38.102;2022-10-28T09:56:34;7.65;;;3.25;;
74945;SDS011;63509;45.250;38.102;2022-10-28T09:59:00;5.97;;;3.50;;
74945;SDS011;63509;45.250;38.102;2022-10-28T10:01:32;9.82;;;3.25;;
74945;SDS011;63509;45.250;38.102;2022-10-28T10:03:59;7.18;;;3.20;;
74945;SDS011;63509;45.250;38.102;2022-10-28T10:06:31;6.78;;;3.17;;
74945;SDS011;63509;45.250;38.102;2022-10-28T10:09:02;4.75;;;2.45;;
74945;SDS011;63509;45.250;38.102;2022-10-28T10:13:57;4.90;;;2.55;;
74945;SDS011;63509;45.250;38.102;2022-10-28T10:16:35;7.15;;;2.92;;
74945;SDS011;63509;45.250;38.102;2022-10-28T10:19:06;5.53;;;2.92;;
74945;SDS011;63509;45.250;38.102;2022-10-28T10:21:39;5.93;;;3.05;;
74945;SDS011;63509;45.250;38.102;2022-10-28T10:26:51;6.70;;;4.10;;
74945;SDS011;63509;45.250;38.102;2022-10-28T10:29:18;5.20;;;2.90;;
74945;SDS011;63509;45.250;38.102;2022-10-28T10:31:46;8.00;;;2.97;;
74945;SDS011;63509;45.250;38.102;2022-10-28T10:34:22;6.30;;;2.85;;
74945;SDS011;63509;45.250;38.102;2022-10-28T10:36:53;4.97;;;2.70;;
74945;SDS011;63509;45.250;38.102;2022-10-28T10:39:21;5.68;;;2.60;;
74945;SDS011;63509;45.250;38.102;2022-10-28T10:41:51;5.97;;;2.67;;
74945;SDS011;63509;45.250;38.102;2022-10-28T10:52:36;5.97;;;2.17;;
74945;SDS011;63509;45.250;38.102;2022-10-28T10:54:47;8.30;;;2.75;;
74945;SDS011;63509;45.250;38.102;2022-10-28T10:57:23;6.68;;;2.92;;
74945;SDS011;63509;45.250;38.102;2022-10-28T10:59:51;4.80;;;2.78;;
74945;SDS011;63509;45.250;38.102;2022-10-28T11:04:48;4.15;;;2.50;;
74945;SDS011;63509;45.250;38.102;2022-10-28T11:07:16;4.72;;;2.40;;
74945;SDS011;63509;45.250;38.102;2022-10-28T11:09:43;4.13;;;2.40;;
74945;SDS011;63509;45.250;38.102;2022-10-28T11:12:29;5.50;;;2.50;;
74945;SDS011;63509;45.250;38.102;2022-10-28T11:15:00;5.95;;;2.97;;
74945;SDS011;63509;45.250;38.102;2022-10-28T11:20:49;9.07;;;2.83;;
74945;SDS011;63509;45.250;38.102;2022-10-28T11:26:20;4.22;;;2.60;;
74945;SDS011;63509;45.250;38.102;2022-10-28T11:31:53;4.70;;;2.95;;
74945;SDS011;63509;45.250;38.102;2022-10-28T11:45:20;7.55;;;4.35;;
74945;SDS011;63509;45.250;38.102;2022-10-28T11:48:13;7.57;;;3.60;;
74945;SDS011;63509;45.250;38.102;2022-10-28T11:56:42;6.45;;;3.80;;
74945;SDS011;63509;45.250;38.102;2022-10-28T12:23:48;5.32;;;3.40;;
74945;SDS011;63509;45.250;38.102;2022-10-28T12:26:15;8.70;;;4.75;;
74945;SDS011;63509;45.250;38.102;2022-10-28T12:31:23;6.50;;;3.38;;
74945;SDS011;63509;45.250;38.102;2022-10-28T12:33:54;6.38;;;3.67;;
74945;SDS011;63509;45.250;38.102;2022-10-28T12:39:18;5.70;;;3.10;;
74945;SDS011;63509;45.250;38.102;2022-10-28T12:44:35;7.40;;;3.58;;
74945;SDS011;63509;45.250;38.102;2022-10-28T12:47:21;6.10;;;3.58;;
74945;SDS011;63509;45.250;38.102;2022-10-28T12:55:40;7.63;;;3.00;;
74945;SDS011;63509;45.250;38.102;2022-10-28T12:58:35;9.75;;;3.15;;
74945;SDS011;63509;45.250;38.102;2022-10-28T13:01:07;8.02;;;3.30;;
74945;SDS011;63509;45.250;38.102;2022-10-28T13:03:37;6.38;;;3.60;;
74945;SDS011;63509;45.250;38.102;2022-10-28T13:14:23;8.07;;;3.80;;
74945;SDS011;63509;45.250;38.102;2022-10-28T13:28:20;7.15;;;4.50;;
74945;SDS011;63509;45.250;38.102;2022-10-28T13:30:54;8.10;;;4.65;;
74945;SDS011;63509;45.250;38.102;2022-10-28T13:33:32;8.85;;;5.00;;
74945;SDS011;63509;45.250;38.102;2022-10-28T13:36:17;8.40;;;4.65;;
74945;SDS011;63509;45.250;38.102;2022-10-28T13:38:49;11.20;;;5.78;;
74945;SDS011;63509;45.250;38.102;2022-10-28T13:41:26;12.02;;;6.15;;
74945;SDS011;63509;45.250;38.102;2022-10-28T13:43:58;12.68;;;5.43;;
74945;SDS011;63509;45.250;38.102;2022-10-28T13:49:26;11.43;;;6.13;;
74945;SDS011;63509;45.250;38.102;2022-10-28T13:52:01;11.35;;;5.72;;
74945;SDS011;63509;45.250;38.102;2022-10-28T13:57:12;14.48;;;4.78;;
74945;SDS011;63509;45.250;38.102;2022-10-28T14:00:01;11.30;;;5.28;;
74945;SDS011;63509;45.250;38.102;2022-10-28T14:02:41;9.30;;;5.32;;
74945;SDS011;63509;45.250;38.102;2022-10-28T14:05:13;13.02;;;5.72;;
74945;SDS011;63509;45.250;38.102;2022-10-28T14:15:32;8.73;;;5.35;;
74945;SDS011;63509;45.250;38.102;2022-10-28T14:18:02;12.30;;;5.55;;
74945;SDS011;63509;45.250;38.102;2022-10-28T14:41:42;8.75;;;5.85;;
74945;SDS011;63509;45.250;38.102;2022-10-28T14:49:24;11.60;;;5.95;;
74945;SDS011;63509;45.250;38.102;2022-10-28T14:51:52;12.75;;;6.07;;
74945;SDS011;63509;45.250;38.102;2022-10-28T14:54:33;14.90;;;6.03;;
74945;SDS011;63509;45.250;38.102;2022-10-28T14:57:02;8.77;;;5.05;;
74945;SDS011;63509;45.250;38.102;2022-10-28T14:59:35;10.02;;;5.57;;
74945;SDS011;63509;45.250;38.102;2022-10-28T15:02:09;11.60;;;6.25;;
74945;SDS011;63509;45.250;38.102;2022-10-28T15:04:37;9.25;;;5.80;;
74945;SDS011;63509;45.250;38.102;2022-10-28T15:07:04;11.00;;;6.35;;
74945;SDS011;63509;45.250;38.102;2022-10-28T15:09:41;17.95;;;5.93;;
74945;SDS011;63509;45.250;38.102;2022-10-28T15:12:13;15.05;;;6.10;;
74945;SDS011;63509;45.250;38.102;2022-10-28T15:14:49;12.93;;;5.85;;
74945;SDS011;63509;45.250;38.102;2022-10-28T15:17:19;13.73;;;5.63;;
74945;SDS011;63509;45.250;38.102;2022-10-28T15:19:49;10.27;;;5.80;;
74945;SDS011;63509;45.250;38.102;2022-10-28T15:24:53;11.98;;;6.57;;
74945;SDS011;63509;45.250;38.102;2022-10-28T15:27:23;11.32;;;6.35;;
74945;SDS011;63509;45.250;38.102;2022-10-28T15:29:51;13.02;;;5.90;;
74945;SDS011;63509;45.250;38.102;2022-10-28T15:34:44;15.57;;;7.45;;
74945;SDS011;63509;45.250;38.102;2022-10-28T15:37:14;17.83;;;7.80;;
74945;SDS011;63509;45.250;38.102;2022-10-28T15:39:46;18.60;;;7.45;;
74945;SDS011;63509;45.250;38.102;2022-10-28T15:42:35;16.48;;;6.30;;
74945;SDS011;63509;45.250;38.102;2022-10-28T15:45:26;21.00;;;8.15;;
74945;SDS011;63509;45.250;38.102;2022-10-28T15:47:55;20.25;;;11.13;;
74945;SDS011;63509;45.250;38.102;2022-10-28T15:53:18;22.80;;;8.88;;
74945;SDS011;63509;45.250;38.102;2022-10-28T15:56:16;28.00;;;11.20;;
74945;SDS011;63509;45.250;38.102;2022-10-28T15:58:45;31.38;;;12.85;;
74945;SDS011;63509;45.250;38.102;2022-10-28T16:01:38;23.17;;;10.77;;
74945;SDS011;63509;45.250;38.102;2022-10-28T16:06:43;17.38;;;7.57;;
74945;SDS011;63509;45.250;38.102;2022-10-28T16:09:17;18.50;;;8.43;;
74945;SDS011;63509;45.250;38.102;2022-10-28T16:12:14;18.27;;;8.50;;
74945;SDS011;63509;45.250;38.102;2022-10-28T16:15:00;13.85;;;7.88;;
74945;SDS011;63509;45.250;38.102;2022-10-28T16:17:30;14.45;;;8.02;;
74945;SDS011;63509;45.250;38.102;2022-10-28T16:20:12;14.00;;;6.57;;
74945;SDS011;63509;45.250;38.102;2022-10-28T16:22:42;11.98;;;8.30;;
74945;SDS011;63509;45.250;38.102;2022-10-28T16:25:12;15.02;;;7.70;;
74945;SDS011;63509;45.250;38.102;2022-10-28T16:27:45;14.30;;;8.55;;
74945;SDS011;63509;45.250;38.102;2022-10-28T16:30:11;12.52;;;7.72;;
74945;SDS011;63509;45.250;38.102;2022-10-28T16:37:40;19.27;;;10.38;;
74945;SDS011;63509;45.250;38.102;2022-10-28T16:40:07;20.50;;;12.23;;
74945;SDS011;63509;45.250;38.102;2022-10-28T16:42:34;16.85;;;10.48;;
74945;SDS011;63509;45.250;38.102;2022-10-28T16:45:02;19.25;;;11.57;;
74945;SDS011;63509;45.250;38.102;2022-10-28T16:47:34;21.92;;;13.23;;
74945;SDS011;63509;45.250;38.102;2022-10-28T16:50:00;30.77;;;17.08;;
74945;SDS011;63509;45.250;38.102;2022-10-28T16:52:29;22.92;;;13.38;;
74945;SDS011;63509;45.250;38.102;2022-10-28T16:54:56;21.70;;;12.55;;
74945;SDS011;63509;45.250;38.102;2022-10-28T16:57:22;18.63;;;9.52;;
74945;SDS011;63509;45.250;38.102;2022-10-28T16:59:49;14.02;;;7.65;;
74945;SDS011;63509;45.250;38.102;2022-10-28T17:04:58;16.65;;;7.70;;
74945;SDS011;63509;45.250;38.102;2022-10-28T17:07:24;14.07;;;6.68;;
74945;SDS011;63509;45.250;38.102;2022-10-28T17:09:51;11.60;;;6.72;;
74945;SDS011;63509;45.250;38.102;2022-10-28T17:12:18;12.57;;;6.00;;
74945;SDS011;63509;45.250;38.102;2022-10-28T17:14:46;17.50;;;7.90;;
74945;SDS011;63509;45.250;38.102;2022-10-28T17:17:12;17.45;;;8.70;;
74945;SDS011;63509;45.250;38.102;2022-10-28T17:19:39;18.98;;;8.77;;
74945;SDS011;63509;45.250;38.102;2022-10-28T17:22:06;14.20;;;8.25;;
74945;SDS011;63509;45.250;38.102;2022-10-28T17:24:33;17.23;;;8.43;;
74945;SDS011;63509;45.250;38.102;2022-10-28T17:26:59;12.90;;;7.32;;
74945;SDS011;63509;45.250;38.102;2022-10-28T17:29:26;19.15;;;7.63;;
74945;SDS011;63509;45.250;38.102;2022-10-28T17:31:52;13.15;;;7.85;;
74945;SDS011;63509;45.250;38.102;2022-10-28T17:34:18;8.35;;;5.88;;
74945;SDS011;63509;45.250;38.102;2022-10-28T17:36:45;12.90;;;6.40;;
74945;SDS011;63509;45.250;38.102;2022-10-28T17:39:11;9.07;;;5.60;;
74945;SDS011;63509;45.250;38.102;2022-10-28T17:41:37;15.80;;;7.95;;
74945;SDS011;63509;45.250;38.102;2022-10-28T17:44:03;10.43;;;5.95;;
74945;SDS011;63509;45.250;38.102;2022-10-28T17:46:29;8.85;;;5.43;;
74945;SDS011;63509;45.250;38.102;2022-10-28T17:48:56;10.60;;;5.53;;
74945;SDS011;63509;45.250;38.102;2022-10-28T17:51:22;7.80;;;5.32;;
74945;SDS011;63509;45.250;38.102;2022-10-28T17:53:53;12.20;;;5.63;;
74945;SDS011;63509;45.250;38.102;2022-10-28T17:56:19;11.65;;;5.85;;
74945;SDS011;63509;45.250;38.102;2022-10-28T17:58:45;15.60;;;7.13;;
74945;SDS011;63509;45.250;38.102;2022-10-28T18:01:12;12.95;;;8.10;;
74945;SDS011;63509;45.250;38.102;2022-10-28T18:03:38;14.30;;;7.50;;
74945;SDS011;63509;45.250;38.102;2022-10-28T18:06:06;15.52;;;7.35;;
74945;SDS011;63509;45.250;38.102;2022-10-28T18:08:35;13.77;;;7.65;;
74945;SDS011;63509;45.250;38.102;2022-10-28T18:11:03;13.55;;;8.27;;
74945;SDS011;63509;45.250;38.102;2022-10-28T18:13:35;16.13;;;7.90;;
74945;SDS011;63509;45.250;38.102;2022-10-28T18:16:07;17.65;;;9.60;;
74945;SDS011;63509;45.250;38.102;2022-10-28T18:18:35;16.13;;;9.82;;
74945;SDS011;63509;45.250;38.102;2022-10-28T18:21:01;13.07;;;8.65;;
74945;SDS011;63509;45.250;38.102;2022-10-28T18:23:27;15.57;;;9.40;;
74945;SDS011;63509;45.250;38.102;2022-10-28T18:25:56;16.08;;;9.77;;
74945;SDS011;63509;45.250;38.102;2022-10-28T18:28:24;19.58;;;10.52;;
74945;SDS011;63509;45.250;38.102;2022-10-28T18:30:50;22.23;;;11.68;;